Terminal Aerodrome Forecast
Issued by NWS

Home | Current Version | Previous Version | Text Only | Print | Product List | Glossary On
Versions: 1 2 3 4 5 6 7 8 9 10 11 12 13 14 15 16 17 18 19
000
FTUS43 KGRB 012300
TAFAUW
TAF
KAUW 012335Z 0200/0224 26006KT P6SM SKC
     FM020800 28003KT 5SM BR SKC
     FM021400 26007KT P6SM VCSH SCT035 BKN090
     FM022000 26008KT P6SM SCT090=

USA.gov is the U.S. government's official web portal to all federal, state and local government web resources and services.